Barnett, Illinois
Current Conditions -  °F | °C
As of 9:15 AM on Saturday 25 Oct 2014 (Local Time) from K3LF Reporting Station
Haze Haze  
Wind Chill: 60°   Ceiling: 300
Heat Index: 60°   Visibility: 5mi
Dew Point: 58°   Wind: 5mph
Humidity: 92%   Direction: 280°W
Pressure: 30.05"   Gusts: NA
Location:  39.1865°N, 89.679°W
Report Text: K3LF 251415Z AUTO 28004KT 5SM BR OVC003 16/14 A3005 RMK AO2 T01550142
Loading
Personal Weather Stations






























Interactive Weather Map
Tropical Storm Tracking
New forecast layout! Learn more

10-Day Weather Forecast

Advertisements
Track Severe Weather on mobile